Terminal Aerodrome Forecast
Issued by NWS

Home | Current Version | Previous Version | Text Only | Print | Product List | Glossary On
Versions: 1 2 3 4 5 6 7 8 9 10 11 12 13 14 15 16 17 18 19 20 21
975
FTPA31 PHFO 081136
TAFHNY
TAF
PHNY 081136Z 0812/0912 03012KT P6SM FEW040
     FM082000 04015G23KT P6SM SCT020 SCT040
     FM090500 04011G18KT P6SM SCT020 SCT040
     FM090800 04008KT P6SM FEW040
      AMD NOT SKED=

USA.gov is the U.S. government's official web portal to all federal, state and local government web resources and services.